Terminal Aerodrome Forecast
Issued by NWS

Home | Current Version | Previous Version | Text Only | Print | Product List | Glossary Off
Versions: 1 2 3 4 5 6 7 8 9 10 11 12 13 14 15 16 17 18 19 20 21 22

000
FTUS43 KBIS 181700
TAFMOT
TAF
KMOT 181734Z 1818/1918 15016G24KT P6SM SCT120
     FM190300 19013KT P6SM VCTS BKN120CB
     FM190600 21010KT P6SM BKN120
     FM191600 28014G22KT P6SM SCT150=

USA.gov is the U.S. government's official web portal to all federal, state and local government web resources and services.